Time;durP1;ratioP1;P1;durP2;ratioP2;P2;SDS_P1;SDS_P2;PMS_P1;PMS_P2;Temp;Humidity;BMP_temperature;BMP_pressure;BME280_temperature;BME280_humidity;BME280_pressure;Samples;Min_cycle;Max_cycle;Signal;HPM_P1;HPM_P2
2023/06/25 00:01:49;;;;;;;3.65;2.65;;;;;;;19.99;100.00;98381.84;5160032;27;20049;-58
2023/06/25 00:04:15;;;;;;;5.47;2.70;;;;;;;19.96;100.00;98391.09;5160565;27;20051;-60
2023/06/25 00:06:41;;;;;;;3.95;2.65;;;;;;;19.85;100.00;98373.97;5160103;27;20063;-59
2023/06/25 00:09:07;;;;;;;5.25;2.45;;;;;;;20.01;100.00;98382.19;5159910;27;20081;-58
2023/06/25 00:11:32;;;;;;;3.33;2.75;;;;;;;19.95;100.00;98370.06;5159739;27;20347;-56
2023/06/25 00:13:59;;;;;;;3.35;2.60;;;;;;;19.70;100.00;98331.94;5159740;27;20141;-52
2023/06/25 00:16:29;;;;;;;3.42;3.13;;;;;;;19.87;100.00;98349.28;5159878;27;20055;-53
2023/06/25 00:18:55;;;;;;;3.20;2.60;;;;;;;19.95;100.00;98328.31;5158454;27;20083;-59
2023/06/25 00:21:21;;;;;;;3.05;2.65;;;;;;;20.01;100.00;98351.56;5160175;27;20058;-54
2023/06/25 00:23:46;;;;;;;4.93;2.80;;;;;;;19.66;100.00;98315.38;5159565;27;20135;-51
2023/06/25 00:26:12;;;;;;;3.08;2.78;;;;;;;19.60;100.00;98305.22;5159815;27;20324;-52
2023/06/25 00:28:38;;;;;;;7.00;3.00;;;;;;;19.66;100.00;98311.78;5159440;27;20055;-52
2023/06/25 00:31:05;;;;;;;3.15;2.67;;;;;;;19.77;100.00;98330.94;5159782;27;20195;-57
2023/06/25 00:33:31;;;;;;;3.90;3.10;;;;;;;19.56;100.00;98318.44;5159301;27;20090;-55
2023/06/25 00:36:06;;;;;;;3.72;2.78;;;;;;;19.66;100.00;98320.94;5159598;27;20047;-56
2023/06/25 00:38:33;;;;;;;3.22;2.60;;;;;;;19.50;100.00;98316.25;5159335;27;20521;-58
2023/06/25 00:40:59;;;;;;;3.53;2.63;;;;;;;19.64;100.00;98328.94;5159164;27;20047;-56
2023/06/25 00:43:25;;;;;;;7.43;3.10;;;;;;;19.55;100.00;98326.00;5159293;27;20103;-59
2023/06/25 00:45:51;;;;;;;4.05;2.45;;;;;;;19.68;100.00;98356.63;5159255;27;20145;-59
2023/06/25 00:48:21;;;;;;;4.53;3.28;;;;;;;19.65;100.00;98349.16;5159451;27;20042;-56
2023/06/25 00:50:47;;;;;;;5.63;3.70;;;;;;;19.54;100.00;98343.16;5159100;27;20050;-60
2023/06/25 00:53:14;;;;;;;3.45;2.38;;;;;;;19.49;100.00;98333.34;5159362;27;20134;-57
2023/06/25 00:55:40;;;;;;;2.60;2.30;;;;;;;19.52;100.00;98335.25;5158852;27;20137;-59
2023/06/25 00:58:07;;;;;;;4.60;2.20;;;;;;;19.45;100.00;98335.47;5159561;27;20057;-60
2023/06/25 01:00:34;;;;;;;5.05;2.47;;;;;;;19.52;100.00;98336.00;5158864;27;20065;-56
2023/06/25 01:03:07;;;;;;;3.95;2.40;;;;;;;19.45;100.00;98325.13;5159086;27;20046;-53
2023/06/25 01:05:43;;;;;;;6.10;2.70;;;;;;;19.57;100.00;98342.25;5159185;27;20096;-53
2023/06/25 01:08:11;;;;;;;7.47;2.63;;;;;;;19.21;100.00;98321.91;5158850;27;20149;-53
2023/06/25 01:10:37;;;;;;;3.92;2.75;;;;;;;19.21;100.00;98329.47;5159100;27;20413;-58
2023/06/25 01:13:04;;;;;;;4.85;2.28;;;;;;;19.16;100.00;98310.56;5158702;27;20145;-57
2023/06/25 01:15:30;;;;;;;4.55;2.35;;;;;;;19.27;100.00;98336.81;5159031;27;20103;-56
2023/06/25 01:17:57;;;;;;;7.40;2.47;;;;;;;19.23;100.00;98335.38;5158492;27;20451;-53
2023/06/25 01:20:26;;;;;;;8.38;2.70;;;;;;;19.07;100.00;98349.34;5159006;27;20046;-51
2023/06/25 01:22:53;;;;;;;5.53;2.40;;;;;;;18.95;100.00;98318.31;5158544;27;20336;-56
2023/06/25 01:25:19;;;;;;;7.07;2.15;;;;;;;19.15;100.00;98342.34;5159057;27;20050;-55
2023/06/25 01:27:45;;;;;;;5.18;2.58;;;;;;;19.05;100.00;98347.00;5158666;27;20054;-56
2023/06/25 01:30:14;;;;;;;4.22;2.78;;;;;;;19.12;100.00;98357.13;5158262;27;20057;-61
2023/06/25 01:32:41;;;;;;;5.18;2.33;;;;;;;18.89;100.00;98342.28;5158672;27;20046;-54
2023/06/25 01:35:08;;;;;;;7.57;2.17;;;;;;;19.02;100.00;98348.66;5158315;27;20399;-51
2023/06/25 01:37:34;;;;;;;5.63;4.13;;;;;;;18.87;100.00;98341.97;5158321;27;20051;-51
2023/06/25 01:40:00;;;;;;;2.63;2.22;;;;;;;18.80;100.00;98322.75;5158299;27;20138;-60
2023/06/25 01:42:26;;;;;;;2.85;2.10;;;;;;;18.78;100.00;98328.72;5158528;27;20133;-57
2023/06/25 01:44:52;;;;;;;4.53;2.40;;;;;;;18.79;100.00;98323.94;5158179;27;20046;-59
2023/06/25 01:47:18;;;;;;;3.08;2.45;;;;;;;18.71;100.00;98326.13;5158775;27;20055;-59
2023/06/25 01:49:44;;;;;;;5.18;2.28;;;;;;;18.84;100.00;98337.28;5158098;27;20055;-53
2023/06/25 01:52:10;;;;;;;4.95;2.40;;;;;;;18.77;100.00;98334.72;5158554;27;20086;-53
2023/06/25 01:54:36;;;;;;;2.17;2.00;;;;;;;18.73;100.00;98334.84;5157965;27;20442;-55
2023/06/25 01:57:03;;;;;;;3.28;2.17;;;;;;;18.68;100.00;98334.56;5157876;27;20058;-58
2023/06/25 01:59:29;;;;;;;2.05;1.85;;;;;;;18.63;100.00;98333.09;5157999;27;20142;-52
2023/06/25 02:01:55;;;;;;;6.22;2.15;;;;;;;18.54;100.00;98300.44;5158159;27;20138;-53
2023/06/25 02:04:21;;;;;;;3.58;1.95;;;;;;;18.50;100.00;98298.97;5158245;27;20058;-51
2023/06/25 02:06:47;;;;;;;3.13;2.08;;;;;;;18.58;100.00;98314.19;5157803;27;20108;-54
2023/06/25 02:09:14;;;;;;;5.95;2.50;;;;;;;18.53;100.00;98311.97;5157861;27;20416;-57
2023/06/25 02:11:40;;;;;;;4.03;2.17;;;;;;;18.56;100.00;98325.75;5157807;27;20420;-58
2023/06/25 02:14:07;;;;;;;7.57;2.10;;;;;;;18.39;100.00;98274.28;5158191;27;20134;-61
2023/06/25 02:16:33;;;;;;;2.72;2.28;;;;;;;18.48;100.00;98293.06;5157734;27;20050;-57
2023/06/25 02:18:59;;;;;;;2.38;2.17;;;;;;;18.57;100.00;98294.00;5158195;27;20074;-53
2023/06/25 02:21:25;;;;;;;5.28;2.30;;;;;;;18.33;100.00;98281.59;5157716;27;20047;-51
2023/06/25 02:23:51;;;;;;;2.85;2.05;;;;;;;18.21;100.00;98235.16;5158142;27;20142;-53
2023/06/25 02:26:17;;;;;;;2.00;1.80;;;;;;;18.54;100.00;98275.44;5157872;27;20471;-57
2023/06/25 02:28:42;;;;;;;3.15;2.20;;;;;;;18.46;100.00;98265.78;5157813;27;20137;-57
2023/06/25 02:31:09;;;;;;;5.60;2.25;;;;;;;18.41;100.00;98284.94;5157940;27;20148;-57
2023/06/25 02:33:35;;;;;;;6.72;2.30;;;;;;;18.19;100.00;98254.22;5157696;27;20074;-57
2023/06/25 02:36:01;;;;;;;2.03;1.80;;;;;;;18.49;100.00;98283.53;5157679;27;20118;-59
2023/06/25 02:38:27;;;;;;;2.83;2.50;;;;;;;18.45;100.00;98278.06;5157719;27;20137;-55
2023/06/25 02:40:53;;;;;;;2.05;1.77;;;;;;;18.53;100.00;98287.00;5157886;27;20050;-52
2023/06/25 02:43:19;;;;;;;4.32;1.80;;;;;;;18.26;100.00;98263.16;5161181;27;20129;-53
2023/06/25 02:45:45;;;;;;;2.58;2.13;;;;;;;18.42;100.00;98262.31;5161466;27;20419;-55
2023/06/25 02:48:11;;;;;;;2.28;1.77;;;;;;;18.37;100.00;98262.09;5161049;27;20439;-57
2023/06/25 02:50:37;;;;;;;3.20;2.22;;;;;;;18.50;100.00;98265.69;5161470;27;20133;-60
2023/06/25 02:53:03;;;;;;;5.63;2.17;;;;;;;18.42;100.00;98255.97;5160917;27;20043;-60
2023/06/25 02:55:29;;;;;;;4.43;1.65;;;;;;;18.44;100.00;98262.66;5161364;27;20381;-59
2023/06/25 02:57:56;;;;;;;1.90;1.75;;;;;;;18.55;100.00;98281.78;5160811;27;20331;-55
2023/06/25 03:00:22;;;;;;;2.03;1.80;;;;;;;18.57;100.00;98285.66;5161065;27;20054;-60
2023/06/25 03:02:48;;;;;;;2.78;1.90;;;;;;;18.41;100.00;98262.75;5161095;27;20042;-57
2023/06/25 03:05:14;;;;;;;4.82;2.53;;;;;;;18.60;100.00;98252.72;5160917;27;20114;-53
2023/06/25 03:07:49;;;;;;;2.20;1.85;;;;;;;18.48;100.00;98257.78;5161009;27;20134;-53
2023/06/25 03:10:15;;;;;;;7.30;3.20;;;;;;;18.46;100.00;98253.88;5160610;27;20065;-54
2023/06/25 03:12:41;;;;;;;6.28;2.28;;;;;;;18.55;100.00;98257.56;5161082;27;20145;-54
2023/06/25 03:15:08;;;;;;;7.55;2.03;;;;;;;18.38;100.00;98271.97;5160675;27;20051;-53
2023/06/25 03:17:34;;;;;;;3.67;2.20;;;;;;;18.90;100.00;98280.00;5161145;27;20093;-53
2023/06/25 03:20:00;;;;;;;2.67;2.05;;;;;;;18.76;100.00;98266.50;5160463;27;20046;-53
2023/06/25 03:22:26;;;;;;;4.15;1.80;;;;;;;18.91;100.00;98294.66;5160979;27;20115;-54
2023/06/25 03:24:52;;;;;;;2.22;1.98;;;;;;;18.89;100.00;98274.88;5160712;27;20174;-52
2023/06/25 03:27:18;;;;;;;3.72;2.60;;;;;;;18.98;100.00;98289.66;5160632;27;20440;-54
2023/06/25 03:29:44;;;;;;;2.10;1.95;;;;;;;18.90;100.00;98288.31;5160651;27;20046;-54
2023/06/25 03:32:10;;;;;;;1.95;1.85;;;;;;;19.01;100.00;98293.56;5160491;27;20078;-54
2023/06/25 03:34:36;;;;;;;1.60;1.50;;;;;;;18.73;100.00;98254.31;5160659;27;20053;-57
2023/06/25 03:37:02;;;;;;;6.93;1.83;;;;;;;18.80;100.00;98254.09;5160224;27;20047;-57
2023/06/25 03:39:28;;;;;;;2.03;1.83;;;;;;;18.68;100.00;98245.72;5160460;27;20380;-61
2023/06/25 03:41:54;;;;;;;2.97;1.70;;;;;;;18.66;100.00;98232.28;5160251;27;20047;-58
2023/06/25 03:44:20;;;;;;;3.15;1.58;;;;;;;18.80;100.00;98256.09;5160475;27;20054;-59
2023/06/25 03:46:46;;;;;;;4.50;2.00;;;;;;;18.69;100.00;98213.94;5160050;27;20117;-61
2023/06/25 03:49:12;;;;;;;2.35;2.13;;;;;;;18.89;100.00;98247.88;5160484;27;20051;-59
2023/06/25 03:51:38;;;;;;;2.55;1.90;;;;;;;18.78;100.00;98259.31;5159949;27;20051;-55
2023/06/25 03:54:04;;;;;;;1.80;1.70;;;;;;;18.81;100.00;98243.75;5160020;27;20058;-56
2023/06/25 03:56:30;;;;;;;1.77;1.65;;;;;;;19.15;100.00;98270.88;5160112;27;20047;-54
2023/06/25 03:58:56;;;;;;;4.07;1.90;;;;;;;19.22;100.00;98284.56;5159860;27;20562;-53
2023/06/25 04:01:22;;;;;;;3.35;2.03;;;;;;;19.17;100.00;98285.13;5159938;27;20054;-52
2023/06/25 04:03:48;;;;;;;2.58;2.08;;;;;;;19.24;100.00;98273.78;5159774;27;20103;-58
2023/06/25 04:06:14;;;;;;;2.05;1.58;;;;;;;19.33;100.00;98283.47;5160165;27;20130;-56
2023/06/25 04:08:40;;;;;;;1.80;1.70;;;;;;;19.15;100.00;98242.34;5159874;27;20057;-61
2023/06/25 04:11:06;;;;;;;2.55;1.85;;;;;;;19.24;100.00;98254.34;5160013;27;20137;-59
2023/06/25 04:13:33;;;;;;;3.58;2.67;;;;;;;19.27;100.00;98252.66;5159835;27;20106;-55
2023/06/25 04:15:59;;;;;;;1.88;1.77;;;;;;;18.77;100.00;98190.34;5160290;27;20133;-57
2023/06/25 04:18:24;;;;;;;5.68;2.03;;;;;;;19.09;100.00;98213.53;5159738;27;20061;-53
2023/06/25 04:20:50;;;;;;;2.65;1.70;;;;;;;19.02;100.00;98193.09;5160056;27;20050;-51
2023/06/25 04:23:18;;;;;;;3.10;1.92;;;;;;;18.88;100.00;98185.22;5159448;27;20314;-55
2023/06/25 04:25:44;;;;;;;1.60;1.50;;;;;;;18.81;100.00;98186.22;5159618;27;20046;-53
2023/06/25 04:28:13;;;;;;;2.28;1.90;;;;;;;19.05;100.00;98172.00;5159504;27;20393;-55
2023/06/25 04:30:40;;;;;;;3.83;2.00;;;;;;;19.04;100.00;98173.22;5159292;27;20043;-55
2023/06/25 04:33:06;;;;;;;4.05;1.60;;;;;;;19.08;100.00;98167.56;5159473;27;20051;-58
2023/06/25 04:35:32;;;;;;;7.88;1.70;;;;;;;19.20;100.00;98186.22;5159306;27;20175;-59
2023/06/25 04:37:58;;;;;;;3.55;3.00;;;;;;;19.16;100.00;98178.00;5159569;27;20070;-57
2023/06/25 04:40:24;;;;;;;2.22;1.88;;;;;;;19.26;100.00;98184.44;5159298;27;20042;-53
2023/06/25 04:42:50;;;;;;;3.10;1.98;;;;;;;19.45;100.00;98202.06;5159550;27;20050;-52
2023/06/25 04:45:16;;;;;;;1.98;1.80;;;;;;;19.15;100.00;98206.97;5159074;27;20057;-58
2023/06/25 04:47:43;;;;;;;2.55;1.73;;;;;;;19.16;100.00;98175.22;5159518;27;20054;-56
2023/06/25 04:50:10;;;;;;;1.95;1.80;;;;;;;19.32;100.00;98190.97;5158942;27;20050;-61
2023/06/25 04:52:36;;;;;;;6.32;2.00;;;;;;;19.17;100.00;98171.22;5159020;27;20130;-56
2023/06/25 04:55:02;;;;;;;4.75;2.03;;;;;;;19.22;100.00;98158.75;5159215;27;20142;-53
2023/06/25 04:57:28;;;;;;;4.60;2.70;;;;;;;19.56;100.00;98210.03;5159031;27;20099;-52
2023/06/25 04:59:54;;;;;;;5.28;1.70;;;;;;;19.69;100.00;98200.47;5159485;27;20061;-55
2023/06/25 05:02:19;;;;;;;3.53;2.05;;;;;;;19.57;100.00;98204.03;5159052;27;20046;-60
2023/06/25 05:04:46;;;;;;;2.70;1.75;;;;;;;19.51;100.00;98192.69;5158492;27;20133;-61
2023/06/25 05:07:12;;;;;;;2.17;2.00;;;;;;;19.40;100.00;98177.63;5158627;27;20345;-54
2023/06/25 05:09:38;;;;;;;5.38;2.80;;;;;;;19.49;100.00;98186.03;5158993;27;20053;-53
2023/06/25 05:12:05;;;;;;;5.05;2.28;;;;;;;19.40;100.00;98155.38;5158730;27;20082;-52
2023/06/25 05:14:31;;;;;;;2.28;2.00;;;;;;;19.14;100.00;98130.44;5159232;27;20372;-61
2023/06/25 05:16:57;;;;;;;4.20;1.92;;;;;;;19.30;100.00;98146.19;5158603;27;20057;-58
2023/06/25 05:19:23;;;;;;;2.65;1.90;;;;;;;19.39;100.00;98139.91;5159130;27;20050;-56
2023/06/25 05:21:50;;;;;;;4.20;1.80;;;;;;;19.19;100.00;98116.00;5158568;27;20049;-59
2023/06/25 05:24:16;;;;;;;5.72;2.17;;;;;;;19.45;100.00;98127.00;5158433;27;20400;-58
2023/06/25 05:26:42;;;;;;;10.18;2.33;;;;;;;19.14;100.00;98104.66;5158584;27;20046;-60
2023/06/25 05:29:08;;;;;;;2.17;2.00;;;;;;;19.11;100.00;98117.44;5158537;27;20053;-58
2023/06/25 05:31:34;;;;;;;5.38;2.40;;;;;;;19.09;100.00;98097.66;5158690;27;20043;-56
2023/06/25 05:33:59;;;;;;;2.65;2.42;;;;;;;19.25;100.00;98107.84;5158539;27;20074;-53
2023/06/25 05:36:25;;;;;;;3.03;1.95;;;;;;;19.42;100.00;98116.78;5158599;27;20289;-53
2023/06/25 05:38:52;;;;;;;4.90;2.15;;;;;;;19.09;100.00;98094.09;5158341;27;20054;-53
2023/06/25 05:41:18;;;;;;;4.22;3.35;;;;;;;19.51;100.00;98123.19;5158537;27;20407;-52
2023/06/25 05:43:44;;;;;;;4.50;1.95;;;;;;;19.58;100.00;98124.19;5158133;27;20137;-56
2023/06/25 05:46:11;;;;;;;7.75;2.00;;;;;;;19.46;100.00;98101.56;5158539;27;20137;-55
2023/06/25 05:48:38;;;;;;;7.65;2.20;;;;;;;19.50;100.00;98113.31;5158096;27;20103;-60
2023/06/25 05:51:04;;;;;;;4.65;2.08;;;;;;;19.57;100.00;98119.88;5158117;27;20057;-57
2023/06/25 05:53:38;;;;;;;3.88;2.03;;;;;;;19.64;100.00;98141.88;5157934;27;20408;-59
2023/06/25 05:56:05;;;;;;;5.88;3.22;;;;;;;19.43;100.00;98101.69;5158064;27;20137;-52
2023/06/25 05:58:30;;;;;;;3.50;1.85;;;;;;;19.09;100.00;98064.31;5157981;27;20046;-57
2023/06/25 06:00:56;;;;;;;4.00;2.40;;;;;;;19.24;100.00;98059.06;5157980;27;20082;-60
2023/06/25 06:03:22;;;;;;;4.90;2.33;;;;;;;18.99;100.00;98068.22;5158297;27;20129;-58
2023/06/25 06:05:48;;;;;;;4.95;2.60;;;;;;;19.13;100.00;98036.44;5158058;27;20047;-55
2023/06/25 06:08:14;;;;;;;3.15;2.22;;;;;;;19.18;100.00;98027.53;5158045;27;20503;-52
2023/06/25 06:10:40;;;;;;;4.95;3.13;;;;;;;19.03;100.00;98043.91;5157877;27;20078;-51
2023/06/25 06:13:07;;;;;;;4.00;2.42;;;;;;;19.27;100.00;98047.06;5158038;27;20133;-52
2023/06/25 06:15:32;;;;;;;3.55;2.70;;;;;;;19.26;100.00;98056.63;5157753;27;20146;-51
2023/06/25 06:17:58;;;;;;;6.50;2.42;;;;;;;19.52;100.00;98057.25;5161457;27;20134;-53
2023/06/25 06:20:24;;;;;;;4.00;2.22;;;;;;;19.36;100.00;98060.22;5161507;27;20082;-52
2023/06/25 06:22:50;;;;;;;4.32;2.17;;;;;;;19.42;100.00;98053.63;5161578;27;20229;-56
2023/06/25 06:25:16;;;;;;;5.88;2.25;;;;;;;19.63;100.00;98070.81;5161650;27;20057;-57
2023/06/25 06:27:42;;;;;;;5.57;2.40;;;;;;;19.38;100.00;98049.44;5161297;27;20097;-58
2023/06/25 06:30:10;;;;;;;3.80;2.10;;;;;;;19.55;100.00;98069.50;5161503;27;20099;-57
2023/06/25 06:32:36;;;;;;;3.28;2.22;;;;;;;19.68;100.00;98059.88;5161359;27;20051;-56
2023/06/25 06:35:02;;;;;;;4.60;2.30;;;;;;;19.82;100.00;98085.63;5161579;27;20444;-53
2023/06/25 06:37:28;;;;;;;5.10;2.33;;;;;;;19.78;100.00;98079.41;5161118;27;20046;-52
2023/06/25 06:39:54;;;;;;;4.50;2.00;;;;;;;20.06;100.00;98094.25;5161590;27;20316;-54
2023/06/25 06:42:20;;;;;;;7.25;2.13;;;;;;;20.29;100.00;98113.25;5161086;27;20059;-55
2023/06/25 06:44:46;;;;;;;13.73;2.45;;;;;;;19.87;100.00;98104.50;5161729;27;20050;-58
2023/06/25 06:47:12;;;;;;;2.90;1.92;;;;;;;20.21;100.00;98111.97;5160837;27;20050;-60
2023/06/25 06:49:38;;;;;;;3.63;2.20;;;;;;;20.47;100.00;98134.84;5161252;27;20371;-57
2023/06/25 06:52:05;;;;;;;3.60;2.40;;;;;;;20.57;100.00;98164.31;5161136;27;20061;-58
2023/06/25 06:54:31;;;;;;;5.20;2.33;;;;;;;20.74;100.00;98161.28;5161085;27;20055;-59
2023/06/25 06:56:57;;;;;;;5.45;2.15;;;;;;;20.83;100.00;98144.63;5160879;27;20319;-59
2023/06/25 06:59:22;;;;;;;5.80;2.30;;;;;;;20.74;100.00;98176.00;5160931;27;20092;-59
2023/06/25 07:01:48;;;;;;;4.82;2.40;;;;;;;21.17;100.00;98195.81;5161026;27;20138;-60
2023/06/25 07:04:15;;;;;;;2.20;2.00;;;;;;;20.98;100.00;98223.59;5160701;27;20416;-56
2023/06/25 07:06:41;;;;;;;3.47;2.03;;;;;;;21.34;100.00;98258.41;5161074;27;20061;-52
2023/06/25 07:09:07;;;;;;;4.68;2.22;;;;;;;20.97;100.00;98230.41;5160666;27;20137;-51
2023/06/25 07:11:33;;;;;;;2.70;2.17;;;;;;;20.86;100.00;98177.13;5161101;27;20046;-53
2023/06/25 07:13:59;;;;;;;4.38;2.30;;;;;;;21.17;100.00;98193.78;5160518;27;20057;-57
2023/06/25 07:16:25;;;;;;;2.95;2.30;;;;;;;21.49;100.00;98239.91;5161181;27;20094;-58
2023/06/25 07:18:51;;;;;;;2.75;2.30;;;;;;;21.26;100.00;98251.56;5160768;27;20074;-58
2023/06/25 07:21:17;;;;;;;3.92;2.42;;;;;;;21.21;100.00;98241.81;5160746;27;20380;-57
2023/06/25 07:23:43;;;;;;;2.60;2.35;;;;;;;21.34;100.00;98239.72;5160703;27;20054;-59
2023/06/25 07:26:09;;;;;;;6.30;2.58;;;;;;;21.65;100.00;98260.38;5160594;27;20114;-56
2023/06/25 07:28:35;;;;;;;3.80;2.40;;;;;;;22.07;100.00;98305.25;5160156;27;20133;-54
2023/06/25 07:31:01;;;;;;;2.60;2.25;;;;;;;22.23;100.00;98346.09;5160222;27;20397;-56
2023/06/25 07:33:27;;;;;;;5.43;2.47;;;;;;;22.18;100.00;98350.25;5160572;27;20107;-57
2023/06/25 07:35:53;;;;;;;5.57;2.50;;;;;;;22.23;100.00;98354.47;5160222;27;20420;-55
2023/06/25 07:38:20;;;;;;;2.80;2.40;;;;;;;22.85;100.00;98387.66;5160635;27;20054;-53
2023/06/25 07:40:46;;;;;;;3.13;2.40;;;;;;;23.68;100.00;98449.84;5160174;27;20133;-55
2023/06/25 07:43:12;;;;;;;3.92;2.35;;;;;;;24.57;100.00;98550.50;5160586;27;20060;-53
2023/06/25 07:45:38;;;;;;;2.50;2.30;;;;;;;25.70;100.00;98632.16;5160010;27;20093;-57
2023/06/25 07:48:04;;;;;;;2.47;2.00;;;;;;;26.42;100.00;98680.47;5160401;27;20047;-54
2023/06/25 07:50:30;;;;;;;5.07;3.05;;;;;;;26.49;100.00;98685.75;5160446;27;20054;-58
2023/06/25 07:52:56;;;;;;;4.68;2.88;;;;;;;27.41;100.00;98698.66;5160115;27;20058;-60
2023/06/25 07:55:25;;;;;;;4.05;2.38;;;;;;;27.83;100.00;98719.97;5160201;27;20094;-60
2023/06/25 07:57:51;;;;;;;5.38;2.92;;;;;;;28.41;97.16;98724.97;5159949;27;20146;-53
2023/06/25 08:00:17;;;;;;;3.88;2.53;;;;;;;28.55;95.06;98724.06;5160243;27;20146;-56
2023/06/25 08:02:43;;;;;;;4.88;3.05;;;;;;;28.85;91.22;98727.38;5159904;27;20129;-57
2023/06/25 08:05:10;;;;;;;4.95;2.67;;;;;;;28.51;88.34;98734.78;5160080;27;20410;-55
2023/06/25 08:07:36;;;;;;;4.50;2.75;;;;;;;28.36;94.37;98720.78;5159639;27;20092;-60
2023/06/25 08:10:02;;;;;;;4.55;2.35;;;;;;;29.22;86.89;98737.94;5160062;27;20324;-58
2023/06/25 08:12:29;;;;;;;6.40;2.83;;;;;;;30.07;82.62;98742.00;5160090;27;20150;-56
2023/06/25 08:14:55;;;;;;;6.10;2.83;;;;;;;29.90;82.20;98742.72;5160012;27;20133;-54
2023/06/25 08:17:21;;;;;;;3.97;2.90;;;;;;;29.88;83.25;98747.31;5159418;27;20061;-57
2023/06/25 08:19:47;;;;;;;6.50;3.20;;;;;;;30.41;79.71;98749.28;5159461;27;20062;-59
2023/06/25 08:22:13;;;;;;;5.22;2.97;;;;;;;30.16;79.87;98756.69;5159412;27;20050;-61
2023/06/25 08:24:38;;;;;;;3.35;2.78;;;;;;;30.35;78.06;98751.34;5159588;27;20078;-61
2023/06/25 08:27:05;;;;;;;6.90;2.88;;;;;;;30.11;81.79;98753.81;5159718;27;20055;-60
2023/06/25 08:29:32;;;;;;;7.60;2.88;;;;;;;30.47;79.72;98750.09;5159365;27;20161;-56
2023/06/25 08:31:58;;;;;;;3.90;2.83;;;;;;;29.94;82.01;98746.06;5159740;27;20069;-52
2023/06/25 08:34:24;;;;;;;6.00;2.88;;;;;;;30.54;80.05;98740.31;5159334;27;20043;-53
2023/06/25 08:36:50;;;;;;;2.72;2.53;;;;;;;30.75;77.31;98748.56;5159585;27;20051;-56
2023/06/25 08:39:16;;;;;;;5.35;3.00;;;;;;;30.13;80.63;98752.03;5158169;27;20439;-59
2023/06/25 08:41:42;;;;;;;3.70;2.70;;;;;;;30.31;78.88;98745.16;5159160;27;20408;-62
2023/06/25 08:44:08;;;;;;;4.70;3.17;;;;;;;30.41;79.39;98743.63;5159129;27;20382;-60
2023/06/25 08:46:36;;;;;;;3.63;2.88;;;;;;;30.86;79.20;98740.88;5159541;27;20050;-52
2023/06/25 08:49:03;;;;;;;3.50;2.72;;;;;;;30.87;76.34;98755.81;5159295;27;20344;-60
2023/06/25 08:51:30;;;;;;;2.97;2.75;;;;;;;31.22;74.51;98751.66;5159270;27;20046;-54
2023/06/25 08:53:56;;;;;;;3.75;2.97;;;;;;;31.35;74.70;98741.34;5159247;27;20092;-59
2023/06/25 08:56:22;;;;;;;4.00;2.88;;;;;;;31.39;72.55;98743.94;5158863;27;20327;-58
2023/06/25 08:58:48;;;;;;;6.00;3.33;;;;;;;30.86;77.39;98732.41;5158916;27;20141;-59
2023/06/25 09:01:14;;;;;;;4.88;2.80;;;;;;;31.49;75.45;98736.72;5158669;27;20046;-59
2023/06/25 09:03:41;;;;;;;5.00;3.17;;;;;;;31.92;72.46;98744.03;5159173;27;20043;-56
2023/06/25 09:06:12;;;;;;;6.72;3.00;;;;;;;31.83;72.53;98739.44;5159023;27;20054;-58
2023/06/25 09:08:39;;;;;;;4.07;2.83;;;;;;;31.62;70.85;98739.75;5159232;27;20119;-54
2023/06/25 09:11:05;;;;;;;5.40;2.83;;;;;;;31.72;71.27;98740.22;5158682;27;20047;-59
2023/06/25 09:13:31;;;;;;;5.78;2.88;;;;;;;30.38;76.95;98726.94;5159156;27;20061;-56
2023/06/25 09:16:00;;;;;;;4.32;2.95;;;;;;;29.54;80.71;98716.84;5158903;27;20327;-55
2023/06/25 09:18:26;;;;;;;4.80;3.20;;;;;;;30.45;75.97;98726.41;5158317;27;20047;-54
2023/06/25 09:20:53;;;;;;;6.97;3.03;;;;;;;30.30;76.38;98717.41;5158537;27;20043;-53
2023/06/25 09:23:20;;;;;;;3.10;2.85;;;;;;;30.63;74.53;98722.34;5158426;27;20087;-53
2023/06/25 09:25:46;;;;;;;4.43;2.80;;;;;;;31.02;74.16;98716.66;5158839;27;20133;-53
2023/06/25 09:28:12;;;;;;;2.95;2.75;;;;;;;31.79;71.58;98714.19;5158434;27;20335;-60
2023/06/25 09:30:39;;;;;;;3.22;3.00;;;;;;;31.75;72.14;98710.06;5158968;27;20062;-59
2023/06/25 09:33:05;;;;;;;3.53;2.67;;;;;;;31.56;71.77;98716.34;5158060;27;20420;-60
2023/06/25 09:35:33;;;;;;;7.65;2.90;;;;;;;31.75;70.71;98719.34;5158647;27;20054;-53
2023/06/25 09:38:00;;;;;;;5.72;2.83;;;;;;;31.77;69.67;98716.75;5158240;27;20046;-59
2023/06/25 09:40:26;;;;;;;4.78;2.80;;;;;;;30.70;73.06;98714.09;5158760;27;20046;-52
2023/06/25 09:42:55;;;;;;;4.22;2.95;;;;;;;30.67;73.90;98711.53;5158042;27;20150;-59
2023/06/25 09:45:23;;;;;;;4.25;2.78;;;;;;;30.30;75.81;98706.09;5158288;27;20138;-56
2023/06/25 09:47:50;;;;;;;3.95;3.00;;;;;;;30.22;75.85;98703.78;5158180;27;20104;-53
2023/06/25 09:50:18;;;;;;;6.53;2.75;;;;;;;29.86;75.11;98685.69;5157952;27;20061;-52
2023/06/25 09:52:51;;;;;;;4.85;2.70;;;;;;;30.54;73.69;98702.78;5158179;27;20487;-60
2023/06/25 09:55:20;;;;;;;3.25;2.78;;;;;;;31.14;71.52;98703.28;5158091;27;20129;-55
2023/06/25 09:57:47;;;;;;;4.53;2.22;;;;;;;31.98;66.64;98713.59;5158375;27;20046;-59
2023/06/25 10:00:15;;;;;;;6.28;3.35;;;;;;;32.45;63.08;98711.53;5157942;27;20056;-57
2023/06/25 10:02:41;;;;;;;3.25;2.92;;;;;;;31.48;66.49;98703.22;5158483;27;20073;-59
2023/06/25 10:05:07;;;;;;;7.82;3.03;;;;;;;30.67;69.08;98706.63;5157884;27;20408;-59
2023/06/25 10:07:33;;;;;;;3.20;2.90;;;;;;;30.14;73.88;98702.69;5158554;27;20062;-55
2023/06/25 10:09:59;;;;;;;4.57;2.92;;;;;;;29.04;77.05;98694.72;5158151;27;20051;-58
2023/06/25 10:12:26;;;;;;;5.78;2.85;;;;;;;28.64;80.85;98689.28;5158011;27;20133;-58
2023/06/25 10:14:53;;;;;;;4.28;2.72;;;;;;;28.51;82.65;98684.03;5158420;27;20138;-58
2023/06/25 10:17:20;;;;;;;3.58;3.15;;;;;;;27.90;86.95;98673.69;5157855;27;20054;-60
2023/06/25 10:19:52;;;;;;;5.20;2.97;;;;;;;27.81;90.15;98671.03;5157946;27;20042;-58
2023/06/25 10:22:22;;;;;;;5.75;3.80;;;;;;;27.72;86.22;98674.72;5157664;27;20042;-59
2023/06/25 10:24:50;;;;;;;4.20;2.90;;;;;;;27.43;91.62;98665.19;5158016;27;20442;-60
2023/06/25 10:27:21;;;;;;;4.78;3.10;;;;;;;26.97;95.54;98653.78;5157655;27;20199;-59
2023/06/25 10:29:48;;;;;;;5.53;3.33;;;;;;;26.02;96.08;98650.13;5158056;27;20057;-53
2023/06/25 10:32:17;;;;;;;3.65;3.00;;;;;;;26.90;93.88;98657.00;5157489;27;20050;-58
2023/06/25 10:34:43;;;;;;;5.07;3.53;;;;;;;27.27;91.99;98650.88;5157784;27;20439;-57
2023/06/25 10:37:13;;;;;;;3.10;2.80;;;;;;;28.48;85.53;98670.94;5157519;27;20090;-57
2023/06/25 10:39:40;;;;;;;4.68;3.20;;;;;;;27.86;85.20;98664.69;5157736;27;20050;-57
2023/06/25 10:42:08;;;;;;;4.13;2.90;;;;;;;27.88;85.83;98654.44;5157811;27;20145;-59
2023/06/25 10:44:34;;;;;;;4.38;3.10;;;;;;;27.47;91.47;98645.25;5157411;27;20099;-61
2023/06/25 10:47:04;;;;;;;2.90;2.60;;;;;;;27.91;89.65;98649.88;5157783;27;20422;-57
2023/06/25 10:49:30;;;;;;;6.55;2.72;;;;;;;27.03;92.72;98642.59;5157532;27;20082;-57
2023/06/25 10:51:58;;;;;;;4.00;2.90;;;;;;;26.77;97.79;98628.41;5157694;27;20108;-54
2023/06/25 10:54:24;;;;;;;2.88;2.67;;;;;;;26.92;99.70;98623.50;5157364;27;20047;-54
2023/06/25 10:56:53;;;;;;;3.88;2.90;;;;;;;26.95;96.59;98625.34;5157741;27;20138;-53
2023/06/25 10:59:22;;;;;;;3.15;2.88;;;;;;;26.19;100.00;98619.53;5157197;27;20042;-57
2023/06/25 11:01:48;;;;;;;3.72;2.70;;;;;;;26.31;100.00;98596.00;5157110;27;20133;-56
2023/06/25 11:04:14;;;;;;;3.55;2.95;;;;;;;25.70;100.00;98587.25;5160750;27;20061;-53
2023/06/25 11:06:40;;;;;;;6.35;2.97;;;;;;;25.00;100.00;98573.59;5161044;27;20409;-52
2023/06/25 11:09:06;;;;;;;3.33;2.72;;;;;;;25.64;100.00;98575.13;5160757;27;20141;-52
2023/06/25 11:11:32;;;;;;;3.17;2.97;;;;;;;25.76;100.00;98586.09;5160859;27;20047;-52
2023/06/25 11:14:00;;;;;;;5.28;3.10;;;;;;;26.21;100.00;98583.31;5161027;27;20086;-55
2023/06/25 11:16:26;;;;;;;2.92;2.60;;;;;;;26.33;100.00;98587.88;5160682;27;20047;-57
2023/06/25 11:18:51;;;;;;;4.88;2.80;;;;;;;26.40;100.00;98589.50;5160933;27;20093;-61
2023/06/25 11:21:18;;;;;;;4.05;2.75;;;;;;;26.54;100.00;98576.72;5160438;27;20328;-56
2023/06/25 11:23:44;;;;;;;3.83;3.40;;;;;;;27.17;93.69;98600.38;5160989;27;20133;-59